Time;durP1;ratioP1;P1;durP2;ratioP2;P2;SDS_P1;SDS_P2;PMS_P1;PMS_P2;Temp;Humidity;BMP_temperature;BMP_pressure;BME280_temperature;BME280_humidity;BME280_pressure;Samples;Min_cycle;Max_cycle;Signal;HPM_P1;HPM_P2
2022/01/25 00:08:26;;;;;;;;;78.75;56.25;;;;;3.82;62.72;103139.41;5059168;28;45451;-84
2022/01/25 00:15:06;;;;;;;;;75.75;55.75;;;;;3.79;63.23;103144.50;5075053;28;45294;-86
2022/01/25 00:25:03;;;;;;;;;66.00;51.50;;;;;3.60;62.99;103146.44;5058777;28;45485;-84
2022/01/25 00:30:45;;;;;;;;;68.50;51.25;;;;;3.55;63.49;103148.03;5064719;28;45341;-85
2022/01/25 00:32:58;;;;;;;;;62.00;49.25;;;;;3.56;63.73;103143.69;5059111;28;45392;-85
2022/01/25 00:35:23;;;;;;;;;69.00;48.25;;;;;3.53;63.44;103144.47;5057531;28;46857;-84
2022/01/25 00:37:49;;;;;;;;;72.25;54.50;;;;;3.54;63.67;103146.25;5060108;28;46995;-84
2022/01/25 00:40:14;;;;;;;;;68.50;49.75;;;;;3.55;63.53;103154.94;5062611;28;45322;-84
2022/01/25 00:42:40;;;;;;;;;65.25;50.75;;;;;3.52;63.64;103153.09;5062156;28;45554;-84
2022/01/25 00:45:08;;;;;;;;;69.75;49.25;;;;;3.53;64.11;103154.84;5061929;28;45615;-84
2022/01/25 00:47:33;;;;;;;;;66.25;49.00;;;;;3.52;63.77;103152.22;5060743;28;48361;-83
2022/01/25 00:49:58;;;;;;;;;66.75;49.75;;;;;3.54;64.17;103155.75;5062307;28;45235;-83
2022/01/25 00:55:08;;;;;;;;;62.75;48.50;;;;;3.56;63.87;103154.09;5061763;28;45367;-83
2022/01/25 00:57:34;;;;;;;;;61.50;48.50;;;;;3.57;63.40;103150.66;5061823;27;46202;-83
2022/01/25 00:59:59;;;;;;;;;70.25;52.50;;;;;3.53;64.13;103141.84;5060606;28;45283;-82
2022/01/25 01:02:25;;;;;;;;;63.75;49.50;;;;;3.55;63.90;103144.53;5061508;28;45287;-82
2022/01/25 01:04:50;;;;;;;;;60.50;46.75;;;;;3.58;63.62;103145.50;5059836;28;45251;-82
2022/01/25 01:07:16;;;;;;;;;63.00;49.25;;;;;3.56;63.81;103144.56;5060639;28;46845;-82
2022/01/25 01:09:46;;;;;;;;;67.50;49.50;;;;;3.58;64.12;103145.50;5060474;28;45437;-79
2022/01/25 01:12:46;;;;;;;;;61.25;47.00;;;;;3.65;64.48;103148.34;5061835;28;45299;-85
2022/01/25 01:15:26;;;;;;;;;62.50;47.00;;;;;3.62;64.45;103143.91;5061179;28;45556;-84
2022/01/25 01:44:27;;;;;;;;;63.25;46.75;;;;;3.77;64.01;103138.38;5060069;28;45154;-81
2022/01/25 01:47:06;;;;;;;;;67.75;49.50;;;;;3.81;64.24;103153.25;5061238;28;45367;-81
2022/01/25 01:49:40;;;;;;;;;60.00;45.25;;;;;3.80;64.62;103146.25;5061231;28;45417;-81
2022/01/25 01:52:08;;;;;;;;;63.75;46.50;;;;;3.82;64.58;103160.22;5061308;28;45407;-81
2022/01/25 01:54:34;;;;;;;;;61.50;46.25;;;;;3.81;64.11;103153.25;5059397;28;45448;-80
2022/01/25 01:57:00;;;;;;;;;65.50;46.50;;;;;3.82;64.22;103152.44;5061080;28;45260;-80
2022/01/25 01:59:25;;;;;;;;;58.50;46.00;;;;;3.85;63.87;103158.56;5061040;28;45503;-80
2022/01/25 02:01:52;;;;;;;;;54.75;44.00;;;;;3.82;64.08;103152.44;5061150;28;45531;-80
2022/01/25 02:04:18;;;;;;;;;60.25;46.50;;;;;3.86;64.30;103153.41;5060812;28;45469;-80
2022/01/25 02:06:44;;;;;;;;;57.25;43.00;;;;;3.84;64.19;103155.06;5060816;28;45429;-80
2022/01/25 02:09:10;;;;;;;;;55.50;43.50;;;;;3.86;64.40;103152.50;5061027;28;45393;-81
2022/01/25 02:11:38;;;;;;;;;59.25;44.00;;;;;3.88;64.14;103156.94;5059288;28;45834;-82
2022/01/25 02:14:08;;;;;;;;;51.00;42.75;;;;;3.88;63.82;103156.03;5060285;28;45169;-82
2022/01/25 02:24:46;;;;;;;;;45.25;39.00;;;;;3.81;63.90;103154.94;5060819;28;45298;-80
2022/01/25 02:27:12;;;;;;;;;42.25;32.75;;;;;3.84;63.92;103157.66;5060098;28;45449;-81
2022/01/25 02:29:37;;;;;;;;;49.75;40.75;;;;;3.80;63.59;103155.81;5058331;28;45450;-80
2022/01/25 02:32:05;;;;;;;;;48.50;39.50;;;;;3.80;63.46;103156.66;5053417;28;45428;-81
2022/01/25 02:34:31;;;;;;;;;48.00;37.00;;;;;3.80;63.52;103153.19;5057247;28;45213;-83
2022/01/25 02:37:03;;;;;;;;;52.75;41.50;;;;;3.82;63.26;103164.53;5059164;28;45856;-82
2022/01/25 02:39:29;;;;;;;;;48.25;35.50;;;;;3.79;63.94;103159.22;5060439;28;46528;-82
2022/01/25 02:41:55;;;;;;;;;48.75;39.75;;;;;3.79;63.51;103161.81;5060161;28;45775;-83
2022/01/25 02:44:25;;;;;;;;;38.50;31.00;;;;;3.75;63.54;103158.25;5060762;28;45332;-83
2022/01/25 02:49:27;;;;;;;;;51.50;40.75;;;;;3.69;63.52;103145.91;5049095;28;45985;-83
2022/01/25 02:51:52;;;;;;;;;46.50;37.25;;;;;3.74;64.05;103153.88;5059875;28;45448;-80
2022/01/25 02:54:18;;;;;;;;;41.75;36.25;;;;;3.69;63.48;103147.63;5060352;28;45311;-80
2022/01/25 02:56:44;;;;;;;;;50.25;37.25;;;;;3.68;63.64;103153.66;5059652;28;45338;-80
2022/01/25 02:59:11;;;;;;;;;46.75;37.50;;;;;3.68;64.33;103158.88;5051447;28;45413;-80
2022/01/25 03:01:38;;;;;;;;;46.75;37.75;;;;;3.69;64.05;103166.72;5048606;28;45445;-80
2022/01/25 03:04:05;;;;;;;;;52.50;38.75;;;;;3.67;64.26;103162.28;5060433;28;45359;-80
2022/01/25 03:06:31;;;;;;;;;48.75;36.25;;;;;3.66;64.13;103155.31;5059837;28;45536;-80
2022/01/25 03:08:56;;;;;;;;;50.00;38.75;;;;;3.66;63.85;103152.69;5059988;28;46471;-80
2022/01/25 03:11:24;;;;;;;;;46.25;37.75;;;;;3.68;64.24;103154.53;5059761;28;45505;-80
2022/01/25 03:13:55;;;;;;;;;43.50;38.00;;;;;3.69;64.68;103161.50;5059010;28;45387;-80
2022/01/25 03:19:02;;;;;;;;;51.75;39.75;;;;;3.75;64.04;103157.34;5052240;28;45390;-80
2022/01/25 03:23:53;;;;;;;;;46.50;40.00;;;;;3.74;64.44;103151.25;5059968;28;45272;-80
2022/01/25 03:26:20;;;;;;;;;48.75;37.50;;;;;3.76;64.09;103156.50;5059346;28;45594;-80
2022/01/25 03:28:46;;;;;;;;;44.00;35.50;;;;;3.69;64.05;103151.09;5059280;28;46591;-80
2022/01/25 03:31:12;;;;;;;;;53.00;39.75;;;;;3.66;64.13;103151.00;5066305;27;45481;-80
2022/01/25 03:33:38;;;;;;;;;49.50;38.25;;;;;3.59;64.26;103141.19;5060188;28;45299;-80
2022/01/25 03:36:07;;;;;;;;;55.75;38.00;;;;;3.57;64.00;103154.16;5059509;28;45306;-80
2022/01/25 03:38:32;;;;;;;;;49.50;40.25;;;;;3.56;64.36;103144.56;5059582;28;45441;-80
2022/01/25 03:40:58;;;;;;;;;49.25;38.00;;;;;3.56;64.37;103141.09;5057276;28;45243;-80
2022/01/25 03:43:23;;;;;;;;;55.25;39.00;;;;;3.53;64.09;103139.25;5056692;28;45271;-80
2022/01/25 03:46:02;;;;;;;;;56.00;39.25;;;;;3.54;64.84;103137.56;5059491;28;45608;-83
2022/01/25 03:50:53;;;;;;;;;46.00;37.00;;;;;3.57;64.49;103130.75;5059474;28;45425;-83
2022/01/25 03:53:20;;;;;;;;;53.50;39.00;;;;;3.62;64.40;103132.63;5059626;28;45343;-84
2022/01/25 03:55:47;;;;;;;;;53.00;37.25;;;;;3.60;64.64;103130.84;5059585;28;45481;-84
2022/01/25 03:58:14;;;;;;;;;54.25;39.25;;;;;3.63;64.65;103129.19;5052020;28;46440;-80
2022/01/25 04:00:41;;;;;;;;;53.75;40.25;;;;;3.63;64.76;103124.00;5059212;28;45702;-81
2022/01/25 04:03:15;;;;;;;;;46.75;39.00;;;;;3.65;64.76;103123.22;5059599;28;45424;-81
2022/01/25 04:08:10;;;;;;;;;55.00;39.75;;;;;3.70;64.83;103121.63;5060470;28;45457;-82
2022/01/25 04:10:36;;;;;;;;;43.75;37.00;;;;;3.70;64.89;103123.38;5050036;28;45449;-82
2022/01/25 04:13:01;;;;;;;;;53.75;42.50;;;;;3.76;64.96;103128.78;5062512;28;45266;-83
2022/01/25 04:15:27;;;;;;;;;54.00;39.50;;;;;3.76;65.01;103136.59;5062971;28;45456;-85
2022/01/25 04:18:03;;;;;;;;;55.25;39.25;;;;;3.77;64.52;103133.16;5061550;28;47870;-85
2022/01/25 04:20:34;;;;;;;;;52.50;40.00;;;;;3.77;64.78;103135.78;5051619;28;45810;-85
2022/01/25 04:25:43;;;;;;;;;55.50;41.50;;;;;3.81;64.79;103137.63;5062531;28;45343;-85
2022/01/25 04:28:09;;;;;;;;;55.75;40.75;;;;;3.77;64.57;103133.16;5060592;28;45460;-86
2022/01/25 04:30:34;;;;;;;;;51.25;40.25;;;;;3.81;65.16;103142.84;5069455;28;45420;-85
2022/01/25 04:36:27;;;;;;;;;49.00;41.50;;;;;3.85;65.27;103145.56;5062373;28;45434;-84
2022/01/25 04:54:28;;;;;;;;;39.00;36.75;;;;;3.87;65.21;103144.78;5061536;28;46782;-83
2022/01/25 04:57:05;;;;;;;;;51.00;41.00;;;;;3.82;64.85;103131.59;5061526;28;45488;-82
2022/01/25 04:59:39;;;;;;;;;55.25;40.50;;;;;3.83;64.63;103141.16;5062200;28;46483;-84
2022/01/25 05:02:18;;;;;;;;;49.00;40.50;;;;;3.85;64.80;103148.16;5062131;28;45326;-84
2022/01/25 05:04:53;;;;;;;;;48.00;37.25;;;;;3.86;65.41;103144.69;5061526;28;45442;-81
2022/01/25 05:09:50;;;;;;;;;58.50;44.00;;;;;3.87;64.76;103139.56;5061927;28;45432;-85
2022/01/25 05:12:16;;;;;;;;;58.50;45.25;;;;;3.85;65.29;103145.56;5061315;28;45790;-85
2022/01/25 05:15:01;;;;;;;;;57.50;42.75;;;;;3.88;65.23;103148.25;5061262;28;45162;-87
2022/01/25 05:17:36;;;;;;;;;61.25;43.00;;;;;3.89;65.09;103152.63;5061844;28;45358;-86
2022/01/25 05:22:46;;;;;;;;;59.75;44.50;;;;;3.77;65.24;103151.38;5061601;28;45251;-87
2022/01/25 05:25:12;;;;;;;;;56.75;44.75;;;;;3.75;65.05;103152.16;5061686;28;45340;-87
2022/01/25 05:27:37;;;;;;;;;65.75;49.50;;;;;3.69;65.70;103148.50;5061484;28;45347;-87
2022/01/25 05:30:03;;;;;;;;;60.75;44.50;;;;;3.71;65.86;103146.84;5066657;28;45289;-86
2022/01/25 05:32:32;;;;;;;;;61.75;47.00;;;;;3.70;65.01;103146.78;5056844;28;45555;-86
2022/01/25 05:34:58;;;;;;;;;56.00;45.25;;;;;3.71;65.20;103145.94;5061500;28;45452;-86
2022/01/25 05:37:23;;;;;;;;;59.00;44.75;;;;;3.71;65.67;103143.34;5059989;28;45596;-87
2022/01/25 05:39:49;;;;;;;;;58.75;43.00;;;;;3.76;65.53;103154.81;5061420;28;45323;-84
2022/01/25 05:47:19;;;;;;;;;71.75;49.00;;;;;3.76;65.83;103157.41;5061255;28;45276;-83
2022/01/25 05:49:45;;;;;;;;;57.75;46.00;;;;;3.74;65.23;103160.78;5060084;28;45317;-84
2022/01/25 05:52:11;;;;;;;;;56.00;45.25;;;;;3.66;65.53;103161.41;5061071;28;45389;-84
2022/01/25 05:54:38;;;;;;;;;61.75;46.25;;;;;3.64;65.61;103162.16;5051821;28;45327;-83
2022/01/25 05:57:05;;;;;;;;;61.00;46.00;;;;;3.64;66.07;103163.06;5055390;28;46139;-82
2022/01/25 05:59:31;;;;;;;;;60.75;47.50;;;;;3.67;65.59;103157.97;5061212;28;46276;-84
2022/01/25 06:01:56;;;;;;;;;59.50;46.25;;;;;3.69;65.82;103156.31;5060721;28;45396;-86
2022/01/25 06:04:23;;;;;;;;;60.50;44.00;;;;;3.74;65.96;103150.38;5060489;28;45459;-80
2022/01/25 06:06:48;;;;;;;;;55.25;42.75;;;;;3.80;66.49;103161.00;5060752;28;45520;-80
2022/01/25 06:09:14;;;;;;;;;59.50;43.00;;;;;3.78;66.40;103140.13;5060977;28;45250;-79
2022/01/25 06:11:39;;;;;;;;;59.25;46.50;;;;;3.80;65.90;103142.78;5051383;28;45394;-80
2022/01/25 06:14:05;;;;;;;;;65.50;47.50;;;;;3.83;66.19;103148.97;5059244;28;45268;-80
2022/01/25 06:16:31;;;;;;;;;59.75;45.50;;;;;3.85;65.85;103150.75;5061060;28;45466;-80
2022/01/25 06:18:57;;;;;;;;;62.50;45.75;;;;;3.89;66.24;103157.81;5061186;28;45995;-81
2022/01/25 06:21:23;;;;;;;;;65.75;50.50;;;;;3.90;66.10;103151.81;5060943;28;45702;-81
2022/01/25 06:23:49;;;;;;;;;60.50;45.00;;;;;3.92;66.27;103148.41;5059334;28;45308;-80
2022/01/25 06:26:15;;;;;;;;;64.25;46.50;;;;;3.97;66.33;103152.88;5063540;28;45454;-80
2022/01/25 06:28:41;;;;;;;;;65.25;50.25;;;;;3.97;66.46;103155.50;5060137;28;45390;-81
2022/01/25 06:31:07;;;;;;;;;59.50;46.25;;;;;3.98;66.18;103163.34;5060341;27;45394;-79
2022/01/25 06:33:33;;;;;;;;;61.25;47.25;;;;;3.97;65.89;103153.78;5060463;28;45477;-79
2022/01/25 06:35:59;;;;;;;;;58.50;46.75;;;;;3.96;66.09;103158.91;5060682;28;45187;-80
2022/01/25 06:38:27;;;;;;;;;60.50;49.50;;;;;3.99;65.85;103167.72;5060403;28;45658;-80
2022/01/25 06:40:52;;;;;;;;;63.25;48.00;;;;;3.98;65.98;103158.13;5059543;28;45362;-81
2022/01/25 06:43:17;;;;;;;;;64.75;48.75;;;;;3.99;65.91;103161.63;5054513;28;45288;-81
2022/01/25 06:45:45;;;;;;;;;59.75;46.25;;;;;4.03;66.39;103156.56;5060417;28;45389;-81
2022/01/25 06:48:11;;;;;;;;;67.00;49.50;;;;;4.02;66.23;103160.03;5053674;28;45500;-81
2022/01/25 06:50:36;;;;;;;;;67.00;47.75;;;;;4.00;66.34;103146.06;5051175;28;45283;-80
2022/01/25 06:53:02;;;;;;;;;60.50;48.50;;;;;4.00;66.02;103150.41;5060453;28;45310;-79
2022/01/25 06:55:27;;;;;;;;;69.00;49.75;;;;;3.99;66.06;103146.00;5060087;28;45213;-79
2022/01/25 06:57:52;;;;;;;;;60.75;49.25;;;;;4.00;65.92;103143.44;5059953;28;46278;-80
2022/01/25 07:00:22;;;;;;;;;63.75;47.50;;;;;4.03;66.47;103142.66;5060210;28;45437;-80
2022/01/25 07:02:49;;;;;;;;;65.75;51.25;;;;;4.04;66.20;103145.34;5053018;28;45409;-81
2022/01/25 07:05:14;;;;;;;;;64.25;48.75;;;;;4.08;66.26;103150.63;5058315;28;45307;-79
2022/01/25 07:07:40;;;;;;;;;67.75;50.50;;;;;4.12;65.95;103155.13;5059944;28;45445;-82
2022/01/25 07:10:07;;;;;;;;;60.50;47.00;;;;;4.13;66.10;103154.28;5060131;28;45363;-82
2022/01/25 07:12:33;;;;;;;;;64.00;48.00;;;;;4.12;66.08;103152.53;5059143;28;45306;-78
2022/01/25 07:14:58;;;;;;;;;61.50;46.75;;;;;4.16;66.05;103154.38;5059931;28;45247;-78
2022/01/25 07:17:24;;;;;;;;;63.00;50.25;;;;;4.16;65.69;103155.28;5058470;28;46414;-78
2022/01/25 07:19:50;;;;;;;;;58.25;46.00;;;;;4.19;65.91;103162.31;5059532;28;45184;-76
2022/01/25 07:22:16;;;;;;;;;63.50;47.75;;;;;4.18;65.88;103164.84;5059949;28;45207;-77
2022/01/25 07:24:41;;;;;;;;;62.75;48.75;;;;;4.18;66.13;103160.53;5059973;28;45435;-77
2022/01/25 07:27:07;;;;;;;;;58.25;46.00;;;;;4.21;65.93;103173.66;5058910;28;45527;-76
2022/01/25 07:29:33;;;;;;;;;66.50;49.50;;;;;4.21;65.88;103163.25;5062407;28;45453;-77
2022/01/25 07:31:59;;;;;;;;;66.25;49.25;;;;;4.21;65.85;103173.66;5056984;28;45484;-77
2022/01/25 07:34:25;;;;;;;;;63.50;47.00;;;;;4.23;65.92;103182.38;5067230;28;45370;-77
2022/01/25 07:36:50;;;;;;;;;69.50;51.75;;;;;4.22;65.79;103185.81;5054469;28;45276;-77
2022/01/25 07:39:16;;;;;;;;;69.25;52.75;;;;;4.19;65.36;103177.03;5059628;28;45387;-77
2022/01/25 07:41:43;;;;;;;;;63.25;48.75;;;;;4.16;66.01;103181.31;5058432;28;45431;-77
2022/01/25 07:44:08;;;;;;;;;58.75;47.50;;;;;4.10;65.72;103182.84;5059477;28;45373;-77
2022/01/25 07:46:34;;;;;;;;;63.50;46.75;;;;;4.08;65.83;103182.75;5070920;28;45430;-77
2022/01/25 07:49:00;;;;;;;;;64.25;47.25;;;;;4.06;66.10;103181.81;5060055;27;45267;-77
2022/01/25 07:51:26;;;;;;;;;68.50;49.75;;;;;4.07;65.75;103186.22;5059585;28;45547;-77
2022/01/25 07:53:53;;;;;;;;;59.00;46.00;;;;;4.09;66.16;103183.66;5058282;28;45576;-78
2022/01/25 07:56:19;;;;;;;;;60.25;47.25;;;;;4.12;66.51;103181.16;5077923;28;45568;-77
2022/01/25 07:58:45;;;;;;;;;60.00;48.00;;;;;4.13;66.09;103185.50;5059919;28;45366;-77
2022/01/25 08:01:10;;;;;;;;;68.00;46.00;;;;;4.14;66.24;103189.91;5057742;28;45325;-77
2022/01/25 08:03:37;;;;;;;;;68.00;48.50;;;;;4.17;66.52;103197.81;5045190;28;45745;-78
2022/01/25 08:06:03;;;;;;;;;62.75;49.00;;;;;4.18;66.09;103196.06;5062264;28;48348;-78
2022/01/25 08:08:29;;;;;;;;;65.00;48.25;;;;;4.21;65.82;103202.28;5065270;27;45517;-78
2022/01/25 08:10:54;;;;;;;;;60.75;45.75;;;;;4.21;66.19;103197.09;5063702;27;45525;-78
2022/01/25 08:13:20;;;;;;;;;63.25;46.75;;;;;4.19;65.78;103196.16;5057344;28;45481;-78
2022/01/25 08:15:45;;;;;;;;;57.25;46.00;;;;;4.17;66.42;103200.44;5058738;28;45150;-78
2022/01/25 08:18:11;;;;;;;;;54.50;42.75;;;;;4.18;65.82;103206.50;5058515;28;45411;-78
2022/01/25 08:20:36;;;;;;;;;60.50;45.00;;;;;4.19;66.08;103203.97;5059924;28;45355;-78
2022/01/25 08:23:01;;;;;;;;;63.25;47.25;;;;;4.23;65.91;103207.53;5056908;28;45732;-77
2022/01/25 08:25:27;;;;;;;;;60.00;46.75;;;;;4.22;65.98;103209.25;5057125;28;45395;-76
2022/01/25 08:27:52;;;;;;;;;58.50;44.75;;;;;4.23;65.64;103210.13;5057015;28;45402;-76
2022/01/25 08:30:18;;;;;;;;;59.75;42.75;;;;;4.22;65.64;103209.25;5062446;28;45973;-76
2022/01/25 08:32:43;;;;;;;;;62.25;44.50;;;;;4.25;66.08;103205.88;5056857;28;45444;-76
2022/01/25 08:35:10;;;;;;;;;64.25;48.75;;;;;4.24;65.70;103204.13;5056844;28;46086;-76
2022/01/25 08:37:36;;;;;;;;;61.00;46.00;;;;;4.25;65.61;103217.16;5058238;28;45420;-76
2022/01/25 08:40:03;;;;;;;;;60.50;46.00;;;;;4.23;65.93;103215.34;5058577;28;45368;-76
2022/01/25 08:42:29;;;;;;;;;61.75;43.25;;;;;4.22;65.62;103209.25;5057594;28;45303;-76
2022/01/25 08:44:54;;;;;;;;;67.75;48.75;;;;;4.23;65.66;103212.75;5053226;28;45465;-76
2022/01/25 08:47:20;;;;;;;;;65.50;47.25;;;;;4.24;65.33;103211.94;5054824;28;45527;-76
2022/01/25 08:49:45;;;;;;;;;55.25;43.25;;;;;4.17;65.25;103210.84;5056125;28;45642;-76
2022/01/25 08:52:10;;;;;;;;;63.75;47.00;;;;;4.15;65.65;103202.06;5057914;28;45185;-76
2022/01/25 08:54:36;;;;;;;;;59.75;46.50;;;;;4.16;65.39;103206.44;5059404;28;46348;-76
2022/01/25 08:57:03;;;;;;;;;59.00;43.50;;;;;4.14;65.49;103206.41;5061309;28;45471;-76
2022/01/25 08:59:29;;;;;;;;;61.00;47.00;;;;;4.13;65.04;103212.44;5061742;28;45259;-76
2022/01/25 09:01:54;;;;;;;;;61.50;47.00;;;;;4.09;65.48;103199.25;5056240;28;45470;-76
2022/01/25 09:04:20;;;;;;;;;60.50;46.50;;;;;4.05;65.81;103204.34;5060392;28;45390;-76
2022/01/25 09:06:46;;;;;;;;;61.75;46.75;;;;;4.05;65.38;103206.97;5060923;28;45471;-76
2022/01/25 09:09:11;;;;;;;;;56.50;42.50;;;;;4.07;65.52;103204.44;5059358;28;45240;-76
2022/01/25 09:11:40;;;;;;;;;59.50;44.25;;;;;4.11;65.57;103210.59;5060775;28;45446;-75
2022/01/25 09:14:06;;;;;;;;;62.50;48.00;;;;;4.13;66.24;103211.53;5060969;28;45401;-76
2022/01/25 09:16:33;;;;;;;;;60.00;48.25;;;;;4.18;65.91;103212.59;5060791;28;45484;-76
2022/01/25 09:18:58;;;;;;;;;63.00;46.50;;;;;4.19;65.62;103211.78;5061550;28;45326;-75
2022/01/25 09:21:24;;;;;;;;;55.25;43.25;;;;;4.23;66.06;103224.06;5073067;28;45337;-76
2022/01/25 09:23:49;;;;;;;;;66.25;50.00;;;;;4.23;66.03;103216.25;5060721;28;46302;-76
2022/01/25 09:26:16;;;;;;;;;64.50;47.00;;;;;4.31;65.87;103223.41;5062927;28;45314;-76
2022/01/25 09:28:41;;;;;;;;;60.50;46.25;;;;;4.31;65.68;103223.41;5070678;28;45448;-75
2022/01/25 09:31:07;;;;;;;;;63.50;46.25;;;;;4.30;65.51;103224.28;5061319;28;47122;-76
2022/01/25 09:33:32;;;;;;;;;63.75;45.25;;;;;4.34;66.12;103228.75;5060822;28;45459;-76
2022/01/25 09:35:58;;;;;;;;;66.00;48.75;;;;;4.39;65.87;103227.19;5069178;28;45479;-76
2022/01/25 09:38:24;;;;;;;;;57.75;44.50;;;;;4.42;66.20;103227.25;5048197;28;45166;-75
2022/01/25 09:40:51;;;;;;;;;61.50;43.75;;;;;4.48;65.73;103231.78;5060965;28;45426;-76
2022/01/25 09:43:19;;;;;;;;;63.75;46.00;;;;;4.52;66.17;103227.59;5071393;28;45656;-76
2022/01/25 09:45:45;;;;;;;;;60.75;44.50;;;;;4.52;65.27;103235.41;5060302;28;45330;-76
2022/01/25 09:48:11;;;;;;;;;54.50;42.75;;;;;4.53;65.49;103237.16;5059766;28;45399;-76
2022/01/25 09:50:37;;;;;;;;;59.25;46.25;;;;;4.58;65.90;103238.19;5071318;28;45424;-75
2022/01/25 09:53:04;;;;;;;;;59.00;43.00;;;;;4.58;66.00;103233.88;5060724;28;46413;-76
2022/01/25 09:55:36;;;;;;;;;58.00;42.75;;;;;4.61;66.00;103235.69;5060905;28;45972;-75
2022/01/25 09:58:03;;;;;;;;;61.50;43.75;;;;;4.61;65.52;103236.59;5062715;28;45835;-75
2022/01/25 10:00:31;;;;;;;;;59.25;45.00;;;;;4.65;65.23;103244.47;5062778;28;45608;-76
2022/01/25 10:05:49;;;;;;;;;59.50;42.75;;;;;4.71;65.41;103231.66;5062133;28;45265;-75
2022/01/25 10:08:18;;;;;;;;;56.50;43.25;;;;;4.76;65.47;103239.63;5059038;28;45340;-75
2022/01/25 10:10:56;;;;;;;;;61.75;46.50;;;;;4.77;65.61;103230.97;5060542;28;45413;-75
2022/01/25 10:13:24;;;;;;;;;64.25;46.50;;;;;4.80;65.40;103244.09;5059701;27;47933;-76
2022/01/25 10:15:57;;;;;;;;;62.00;46.50;;;;;4.79;65.22;103243.22;5058895;28;45772;-76
2022/01/25 10:18:23;;;;;;;;;56.75;43.25;;;;;4.78;65.12;103240.56;5055972;28;45493;-76
2022/01/25 10:20:50;;;;;;;;;57.50;42.25;;;;;4.76;65.43;103239.63;5056101;28;46412;-75
2022/01/25 10:23:20;;;;;;;;;59.25;44.25;;;;;4.71;65.36;103248.19;5055057;28;46421;-76
2022/01/25 10:25:50;;;;;;;;;56.75;43.00;;;;;4.73;65.11;103243.91;5072809;28;45555;-76
2022/01/25 10:28:22;;;;;;;;;53.00;37.75;;;;;4.78;65.78;103251.88;5058250;28;45165;-75
2022/01/25 10:30:50;;;;;;;;;54.25;42.25;;;;;4.79;65.42;103247.56;5054619;28;45314;-76
2022/01/25 10:33:21;;;;;;;;;56.50;40.50;;;;;4.80;65.42;103247.59;5055638;28;45422;-75
2022/01/25 10:35:47;;;;;;;;;53.75;44.00;;;;;4.86;65.36;103244.31;5059333;28;45562;-76
2022/01/25 10:38:28;;;;;;;;;61.75;47.50;;;;;4.93;65.66;103253.19;5059698;28;45311;-76
2022/01/25 10:40:56;;;;;;;;;57.50;43.00;;;;;4.92;65.62;103244.50;5059282;28;45688;-75
2022/01/25 10:43:23;;;;;;;;;60.25;45.50;;;;;4.92;65.40;103239.28;5061559;28;45353;-75
2022/01/25 10:46:07;;;;;;;;;58.25;43.50;;;;;4.97;65.00;103254.16;5057226;28;45186;-76
2022/01/25 10:48:33;;;;;;;;;60.25;44.50;;;;;4.94;65.28;103249.75;5058794;28;45351;-76
2022/01/25 10:51:12;;;;;;;;;58.00;40.75;;;;;4.97;65.28;103252.44;5070054;28;45424;-75
2022/01/25 10:53:38;;;;;;;;;56.25;42.50;;;;;4.99;65.41;103250.78;5059124;28;46282;-76
2022/01/25 10:56:05;;;;;;;;;61.75;45.75;;;;;5.03;65.12;103251.78;5059272;28;45674;-76
2022/01/25 10:58:35;;;;;;;;;62.50;47.25;;;;;4.97;65.20;103257.66;5063229;28;45445;-76
2022/01/25 11:01:00;;;;;;;;;60.00;46.25;;;;;4.97;65.23;103248.94;5067926;28;45482;-76
2022/01/25 11:03:40;;;;;;;;;56.50;44.00;;;;;5.01;64.97;103245.63;5064380;27;46648;-75
2022/01/25 11:06:14;;;;;;;;;63.75;47.00;;;;;5.03;64.92;103250.06;5058859;28;45488;-75
2022/01/25 11:11:09;;;;;;;;;56.00;42.50;;;;;5.02;64.64;103242.16;5057150;28;73335;-75
2022/01/25 11:13:36;;;;;;;;;57.75;46.25;;;;;5.02;64.84;103229.13;5057603;28;45373;-76
2022/01/25 11:16:07;;;;;;;;;65.75;47.75;;;;;5.10;65.17;103234.59;5059926;28;45750;-76
2022/01/25 11:18:34;;;;;;;;;59.00;45.00;;;;;5.10;65.18;103237.19;5057676;28;45283;-75
2022/01/25 11:21:03;;;;;;;;;59.25;46.75;;;;;5.10;65.02;103235.47;5054716;28;45414;-76
2022/01/25 11:23:34;;;;;;;;;65.00;45.25;;;;;5.13;65.12;103229.47;5058050;28;46148;-76
2022/01/25 11:26:02;;;;;;;;;62.75;47.75;;;;;5.14;65.39;103237.31;5059487;28;45866;-76
2022/01/25 11:28:31;;;;;;;;;64.75;47.25;;;;;5.17;65.08;103242.66;5055858;28;45410;-75
2022/01/25 11:30:59;;;;;;;;;57.75;43.25;;;;;5.21;64.98;103234.94;5072077;28;45337;-76
2022/01/25 11:33:27;;;;;;;;;63.50;44.50;;;;;5.23;65.18;103235.84;5057237;28;46338;-76
2022/01/25 11:35:52;;;;;;;;;64.25;49.50;;;;;5.26;64.95;103241.16;5058206;28;45543;-76
2022/01/25 11:38:32;;;;;;;;;61.75;45.00;;;;;5.31;65.26;103243.91;5058948;28;45437;-76
2022/01/25 11:40:57;;;;;;;;;57.75;44.75;;;;;5.35;65.34;103241.44;5056579;28;45510;-76
2022/01/25 11:43:23;;;;;;;;;67.50;49.25;;;;;5.41;65.18;103243.31;5057182;28;46416;-76
2022/01/25 11:45:50;;;;;;;;;63.00;44.25;;;;;5.43;65.55;103239.06;5059345;28;45350;-76
2022/01/25 11:48:33;;;;;;;;;65.50;47.75;;;;;5.48;65.08;103233.97;5059113;28;45239;-76
2022/01/25 11:51:01;;;;;;;;;58.25;46.25;;;;;5.52;64.91;103241.03;5059148;28;45243;-76
2022/01/25 11:53:29;;;;;;;;;67.50;49.50;;;;;5.52;65.08;103230.59;5059501;28;45298;-76
2022/01/25 11:55:55;;;;;;;;;69.75;50.00;;;;;5.54;65.14;103231.53;5059074;28;45338;-76
2022/01/25 11:58:24;;;;;;;;;61.50;49.00;;;;;5.59;65.21;103227.31;5059699;28;45307;-76
2022/01/25 12:00:53;;;;;;;;;59.25;45.50;;;;;5.57;64.79;103220.28;5058132;28;45370;-76
2022/01/25 12:03:26;;;;;;;;;62.25;44.75;;;;;5.58;64.74;103220.31;5059035;28;45451;-76
2022/01/25 12:06:31;;;;;;;;;65.50;47.50;;;;;5.63;64.84;103221.34;5059161;28;46158;-76
2022/01/25 12:11:49;;;;;;;;;61.25;46.75;;;;;5.66;64.87;103217.03;5058747;28;45391;-76
2022/01/25 12:14:38;;;;;;;;;65.25;50.75;;;;;5.70;64.73;103221.53;5057598;28;47970;-76
2022/01/25 12:17:03;;;;;;;;;69.25;51.00;;;;;5.71;64.73;103225.88;5058655;28;45860;-76
2022/01/25 12:19:45;;;;;;;;;72.50;52.75;;;;;5.68;64.51;103221.47;5059245;28;45350;-76
2022/01/25 12:22:26;;;;;;;;;75.75;56.25;;;;;5.66;64.31;103227.47;5058098;28;45452;-76
2022/01/25 12:25:06;;;;;;;;;65.50;50.75;;;;;5.58;64.39;103209.88;5059035;28;45409;-75
2022/01/25 12:27:55;;;;;;;;;73.00;56.00;;;;;5.60;64.13;103202.13;5046974;28;46001;-76
2022/01/25 12:30:40;;;;;;;;;65.75;49.50;;;;;5.59;64.39;103206.44;5071966;28;45311;-76
2022/01/25 12:33:10;;;;;;;;;68.25;51.00;;;;;5.59;64.07;103206.44;5061850;28;45497;-75
2022/01/25 12:35:49;;;;;;;;;72.25;53.25;;;;;5.60;64.45;103195.19;5062511;28;45421;-76
2022/01/25 12:38:23;;;;;;;;;59.25;48.75;;;;;5.63;64.56;103202.19;5062440;28;45920;-75
2022/01/25 12:41:04;;;;;;;;;80.50;55.25;;;;;5.63;64.42;103197.84;5061985;28;45481;-75
2022/01/25 12:43:39;;;;;;;;;70.75;50.75;;;;;5.62;64.28;103190.00;5059425;28;45677;-76
2022/01/25 12:46:12;;;;;;;;;64.50;48.00;;;;;5.65;64.43;103192.69;5057959;28;45487;-76
2022/01/25 12:48:46;;;;;;;;;66.50;51.50;;;;;5.68;64.60;103186.69;5061428;28;45805;-76
2022/01/25 12:51:14;;;;;;;;;64.25;48.00;;;;;5.70;64.47;103192.81;5063513;28;45525;-76
2022/01/25 12:53:43;;;;;;;;;67.25;48.75;;;;;5.68;63.93;103184.06;5061916;28;45310;-76
2022/01/25 12:56:14;;;;;;;;;66.00;48.00;;;;;5.72;64.17;103180.69;5061305;28;46297;-75
2022/01/25 12:58:40;;;;;;;;;64.25;49.25;;;;;5.72;64.59;103180.69;5052754;28;45828;-76
2022/01/25 13:01:13;;;;;;;;;67.00;49.75;;;;;5.75;64.43;103180.78;5069337;28;45480;-76
2022/01/25 13:03:53;;;;;;;;;68.00;50.00;;;;;5.78;64.39;103183.44;5068511;28;45467;-75
2022/01/25 13:06:22;;;;;;;;;66.00;49.25;;;;;5.84;64.77;103181.03;5061088;28;45476;-76
2022/01/25 13:09:09;;;;;;;;;65.25;48.25;;;;;5.84;64.17;103180.13;5070421;28;45318;-76
2022/01/25 13:17:07;;;;;;;;;67.00;49.00;;;;;5.92;64.40;103165.56;5060598;28;47845;-76
2022/01/25 13:19:44;;;;;;;;;59.75;47.00;;;;;5.91;64.07;103161.19;5053388;28;45884;-76